createdAt,value
2022-10-11T00:01:35.465Z,8.70
2022-10-11T00:04:08.487Z,9.60
2022-10-11T00:06:43.630Z,9.30
2022-10-11T00:09:17.136Z,9.30
2022-10-11T00:11:50.037Z,8.00
2022-10-11T00:14:22.840Z,9.10
2022-10-11T00:16:55.839Z,8.50
2022-10-11T00:19:28.839Z,8.50
2022-10-11T00:22:01.833Z,8.20
2022-10-11T00:24:34.662Z,8.50
2022-10-11T00:27:07.471Z,8.20
2022-10-11T00:29:41.475Z,8.10
2022-10-11T00:32:14.295Z,10.30
2022-10-11T00:34:47.450Z,9.70
2022-10-11T00:37:20.599Z,10.60
2022-10-11T00:39:54.359Z,9.00
2022-10-11T00:42:27.649Z,9.80
2022-10-11T00:45:48.438Z,8.20
2022-10-11T00:48:27.983Z,9.00
2022-10-11T00:51:04.355Z,9.80
2022-10-11T00:53:37.462Z,8.70
2022-10-11T00:56:18.442Z,7.70
2022-10-11T00:58:51.722Z,9.80
2022-10-11T01:01:24.747Z,11.30
2022-10-11T01:03:58.927Z,8.90
2022-10-11T01:06:32.030Z,10.70
2022-10-11T01:09:05.051Z,9.90
2022-10-11T01:11:39.240Z,6.50
2022-10-11T01:15:05.563Z,10.30
2022-10-11T01:17:47.805Z,10.40
2022-10-11T01:20:46.048Z,8.60
2022-10-11T01:24:08.591Z,7.70
2022-10-11T01:27:28.545Z,8.40
2022-10-11T01:30:25.341Z,8.20
2022-10-11T01:33:10.404Z,8.70
2022-10-11T01:35:51.455Z,9.00
2022-10-11T01:38:29.542Z,8.90
2022-10-11T01:41:09.480Z,9.50
2022-10-11T01:43:43.981Z,8.70
2022-10-11T01:46:18.168Z,8.60
2022-10-11T01:48:56.117Z,8.40
2022-10-11T01:51:33.226Z,7.10
2022-10-11T01:54:49.846Z,6.80
2022-10-11T01:57:49.155Z,7.50
2022-10-11T02:00:24.700Z,8.20
2022-10-11T02:03:25.676Z,8.10
2022-10-11T02:06:09.465Z,8.60
2022-10-11T02:08:51.130Z,8.30
2022-10-11T02:11:30.119Z,8.70
2022-10-11T02:14:09.525Z,8.70
2022-10-11T02:16:47.223Z,8.90
2022-10-11T02:19:24.888Z,9.20
2022-10-11T02:22:02.681Z,10.30
2022-10-11T02:24:41.587Z,10.50
2022-10-11T02:27:15.974Z,10.80
2022-10-11T02:29:51.213Z,10.00
2022-10-11T02:32:27.054Z,10.20
2022-10-11T02:35:02.661Z,10.40
2022-10-11T02:37:43.029Z,10.90
2022-10-11T02:40:22.474Z,10.60
2022-10-11T02:43:01.459Z,10.70
2022-10-11T02:45:40.072Z,9.50
2022-10-11T02:48:14.156Z,9.60
2022-10-11T02:50:47.286Z,10.00
2022-10-11T02:53:20.083Z,10.60
2022-10-11T02:55:55.266Z,9.90
2022-10-11T02:58:28.646Z,9.80
2022-10-11T03:01:01.414Z,10.40
2022-10-11T03:03:34.418Z,9.20
2022-10-11T03:06:08.669Z,9.40
2022-10-11T03:08:41.931Z,9.60
2022-10-11T03:11:14.823Z,9.90
2022-10-11T03:13:47.789Z,9.80
2022-10-11T03:16:20.568Z,10.10
2022-10-11T03:18:53.468Z,8.90
2022-10-11T03:21:26.602Z,8.90
2022-10-11T03:23:59.484Z,8.40
2022-10-11T03:26:32.373Z,9.00
2022-10-11T03:29:05.211Z,8.60
2022-10-11T03:31:38.354Z,9.20
2022-10-11T03:34:11.731Z,9.10
2022-10-11T03:36:44.971Z,9.40
2022-10-11T03:39:17.871Z,9.10
2022-10-11T03:41:50.803Z,8.50
2022-10-11T03:44:23.598Z,9.30
2022-10-11T03:46:56.411Z,9.20
2022-10-11T03:49:29.518Z,9.20
2022-10-11T03:52:02.647Z,8.70
2022-10-11T03:54:35.497Z,8.90
2022-10-11T03:57:08.513Z,8.50
2022-10-11T03:59:41.513Z,9.10
2022-10-11T04:02:14.484Z,8.50
2022-10-11T04:04:48.328Z,8.60
2022-10-11T04:07:21.235Z,8.40
2022-10-11T04:09:54.287Z,8.90
2022-10-11T04:12:27.305Z,9.40
2022-10-11T04:15:00.117Z,8.30
2022-10-11T04:17:33.089Z,8.80
2022-10-11T04:20:06.855Z,8.10
2022-10-11T04:22:40.687Z,8.50
2022-10-11T04:25:14.310Z,9.10
2022-10-11T04:27:48.741Z,8.60
2022-10-11T04:30:22.088Z,8.50
2022-10-11T04:32:54.840Z,7.90
2022-10-11T04:35:27.637Z,7.60
2022-10-11T04:38:00.451Z,8.20
2022-10-11T04:40:33.623Z,8.10
2022-10-11T04:43:06.378Z,8.00
2022-10-11T04:45:39.190Z,8.10
2022-10-11T04:48:12.548Z,8.10
2022-10-11T04:50:45.937Z,8.00
2022-10-11T04:53:22.338Z,8.10
2022-10-11T04:56:04.141Z,8.00
2022-10-11T04:58:38.779Z,8.30
2022-10-11T05:01:12.404Z,7.50
2022-10-11T05:03:45.287Z,7.60
2022-10-11T05:06:18.121Z,7.70
2022-10-11T05:08:51.164Z,7.70
2022-10-11T05:11:24.066Z,7.20
2022-10-11T05:13:57.088Z,8.80
2022-10-11T05:16:30.065Z,6.90
2022-10-11T05:19:02.822Z,8.60
2022-10-11T05:21:35.588Z,7.50
2022-10-11T05:24:09.728Z,7.80
2022-10-11T05:26:42.493Z,7.80
2022-10-11T05:29:15.295Z,7.00
2022-10-11T05:31:48.100Z,7.90
2022-10-11T05:34:21.310Z,7.10
2022-10-11T05:36:54.455Z,9.30
2022-10-11T05:39:27.553Z,8.40
2022-10-11T05:42:00.533Z,8.00
2022-10-11T05:44:33.324Z,7.40
2022-10-11T05:47:06.227Z,8.10
2022-10-11T05:49:39.504Z,7.30
2022-10-11T05:52:13.362Z,7.40
2022-10-11T05:54:46.323Z,7.40
2022-10-11T05:57:19.229Z,7.70
2022-10-11T05:59:52.363Z,7.20
2022-10-11T06:02:25.401Z,7.10
2022-10-11T06:04:58.242Z,7.50
2022-10-11T06:07:31.568Z,7.20
2022-10-11T06:10:04.520Z,7.60
2022-10-11T06:12:37.742Z,6.90
2022-10-11T06:15:12.644Z,7.10
2022-10-11T06:17:45.485Z,7.00
2022-10-11T06:20:18.749Z,7.70
2022-10-11T06:22:51.537Z,7.40
2022-10-11T06:25:24.483Z,6.30
2022-10-11T06:27:57.684Z,5.90
2022-10-11T06:30:30.542Z,5.40
2022-10-11T06:33:04.947Z,5.60
2022-10-11T06:35:38.148Z,5.40
2022-10-11T06:38:11.006Z,5.80
2022-10-11T06:40:43.902Z,5.00
2022-10-11T06:43:16.773Z,5.70
2022-10-11T06:45:49.851Z,5.50
2022-10-11T06:48:22.725Z,5.60
2022-10-11T06:50:59.920Z,4.90
2022-10-11T06:53:33.281Z,5.00
2022-10-11T06:56:12.111Z,5.10
2022-10-11T06:58:45.122Z,5.30
2022-10-11T07:01:21.455Z,4.90
2022-10-11T07:03:56.372Z,4.90
2022-10-11T07:06:31.515Z,5.20
2022-10-11T07:09:05.715Z,5.40
2022-10-11T07:11:38.889Z,5.20
2022-10-11T07:14:12.504Z,4.60
2022-10-11T07:16:45.372Z,4.70
2022-10-11T07:19:18.261Z,4.20
2022-10-11T07:21:51.297Z,5.20
2022-10-11T07:24:24.253Z,3.90
2022-10-11T07:26:57.131Z,4.00
2022-10-11T07:29:29.962Z,3.30
2022-10-11T07:32:02.934Z,3.20
2022-10-11T07:34:36.035Z,3.80
2022-10-11T07:37:08.835Z,3.30
2022-10-11T07:39:42.162Z,3.00
2022-10-11T07:42:14.884Z,3.30
2022-10-11T07:44:47.680Z,3.70
2022-10-11T07:47:20.467Z,2.70
2022-10-11T07:49:53.261Z,2.80
2022-10-11T07:52:26.095Z,3.20
2022-10-11T07:54:59.047Z,3.80
2022-10-11T07:57:31.825Z,2.50
2022-10-11T08:00:05.899Z,2.80
2022-10-11T08:02:44.721Z,3.10
2022-10-11T08:05:18.245Z,2.40
2022-10-11T08:07:51.311Z,3.50
2022-10-11T08:10:24.565Z,3.00
2022-10-11T08:13:01.915Z,2.60
2022-10-11T08:15:37.587Z,3.10
2022-10-11T08:18:13.123Z,2.80
2022-10-11T08:20:46.349Z,2.50
2022-10-11T08:23:20.772Z,3.20
2022-10-11T08:25:59.391Z,3.20
2022-10-11T08:28:32.542Z,4.20
2022-10-11T08:31:06.089Z,3.20
2022-10-11T08:33:39.724Z,2.50
2022-10-11T08:36:13.614Z,4.50
2022-10-11T08:38:46.555Z,2.50
2022-10-11T08:41:39.362Z,4.00
2022-10-11T08:44:41.383Z,2.20
2022-10-11T08:47:27.827Z,2.70
2022-10-11T08:50:01.487Z,3.00
2022-10-11T08:52:45.195Z,2.60
2022-10-11T08:55:25.668Z,2.60
2022-10-11T08:58:00.127Z,2.40
2022-10-11T09:00:35.042Z,2.20
2022-10-11T09:03:22.381Z,3.30
2022-10-11T09:06:13.832Z,2.50
2022-10-11T09:09:05.487Z,3.60
2022-10-11T09:11:50.794Z,4.00
2022-10-11T09:14:51.281Z,2.50
2022-10-11T09:17:37.848Z,2.10
2022-10-11T09:20:48.614Z,2.30
2022-10-11T09:23:40.080Z,2.40
2022-10-11T09:26:21.233Z,2.30
2022-10-11T09:29:06.896Z,1.80
2022-10-11T09:31:39.905Z,2.90
2022-10-11T09:34:16.887Z,2.70
2022-10-11T09:36:56.530Z,2.00
2022-10-11T09:39:34.555Z,2.30
2022-10-11T09:42:10.209Z,2.10
2022-10-11T09:44:48.991Z,2.30
2022-10-11T09:47:26.335Z,2.50
2022-10-11T09:50:03.491Z,2.20
2022-10-11T09:52:48.876Z,2.00
2022-10-11T09:55:40.755Z,2.30
2022-10-11T09:58:33.949Z,2.30
2022-10-11T10:01:09.907Z,2.30
2022-10-11T10:03:45.585Z,2.30
2022-10-11T10:06:23.916Z,2.40
2022-10-11T10:08:58.477Z,2.10
2022-10-11T10:11:39.124Z,2.30
2022-10-11T10:14:23.512Z,2.00
2022-10-11T10:17:06.687Z,1.70
2022-10-11T10:19:50.769Z,2.40
2022-10-11T10:22:27.175Z,2.10
2022-10-11T10:25:02.860Z,2.10
2022-10-11T10:27:35.706Z,2.10
2022-10-11T10:30:20.818Z,2.10
2022-10-11T10:33:00.387Z,2.20
2022-10-11T10:35:38.852Z,1.90
2022-10-11T10:38:20.766Z,2.20
2022-10-11T10:40:59.488Z,1.90
2022-10-11T10:43:37.287Z,2.30
2022-10-11T10:46:50.325Z,2.20
2022-10-11T10:49:53.152Z,1.80
2022-10-11T10:52:56.248Z,1.70
2022-10-11T10:55:39.539Z,2.20
2022-10-11T10:58:34.076Z,1.80
2022-10-11T11:01:16.800Z,2.00
2022-10-11T11:03:59.009Z,1.60
2022-10-11T11:06:43.093Z,2.00
2022-10-11T11:09:31.538Z,2.20
2022-10-11T11:12:21.180Z,2.10
2022-10-11T11:15:04.342Z,2.20
2022-10-11T11:17:52.322Z,2.30
2022-10-11T11:20:40.167Z,2.00
2022-10-11T11:23:28.303Z,2.30
2022-10-11T11:26:12.427Z,2.40
2022-10-11T11:29:07.639Z,2.20
2022-10-11T11:32:09.800Z,1.80
2022-10-11T11:34:46.557Z,1.80
2022-10-11T11:37:30.218Z,1.90
2022-10-11T11:40:15.112Z,1.90
2022-10-11T11:42:50.393Z,1.90
2022-10-11T11:45:27.633Z,2.00
2022-10-11T11:48:05.255Z,1.70
2022-10-11T11:50:44.023Z,1.80
2022-10-11T11:53:23.328Z,2.20
2022-10-11T11:56:02.435Z,2.50
2022-10-11T11:58:45.130Z,2.10
2022-10-11T12:01:31.147Z,2.50
2022-10-11T12:04:13.571Z,2.00
2022-10-11T12:07:11.196Z,1.90
2022-10-11T12:09:42.571Z,1.50
2022-10-11T12:12:37.219Z,1.80
2022-10-11T12:15:25.152Z,1.90
2022-10-11T12:18:15.337Z,1.90
2022-10-11T12:20:48.279Z,2.00
2022-10-11T12:23:48.158Z,1.90
2022-10-11T12:26:45.948Z,1.80
2022-10-11T12:29:48.013Z,2.20
2022-10-11T12:33:04.170Z,1.70
2022-10-11T12:36:04.181Z,2.10
2022-10-11T12:38:42.079Z,1.90
2022-10-11T12:41:53.813Z,2.10
2022-10-11T12:44:29.471Z,2.20
2022-10-11T12:47:38.180Z,2.20
2022-10-11T12:53:05.888Z,2.00
2022-10-11T12:55:54.029Z,2.20
2022-10-11T12:58:38.468Z,1.70
2022-10-11T13:01:27.645Z,1.90
2022-10-11T13:04:09.204Z,1.80
2022-10-11T13:06:50.377Z,1.80
2022-10-11T13:09:31.799Z,1.80
2022-10-11T13:12:09.969Z,1.90
2022-10-11T13:14:47.428Z,2.00
2022-10-11T13:17:26.082Z,1.80
2022-10-11T13:20:17.106Z,2.00
2022-10-11T13:22:53.686Z,1.50
2022-10-11T13:25:28.957Z,1.80
2022-10-11T13:28:02.781Z,2.40
2022-10-11T13:30:38.646Z,2.10
2022-10-11T13:33:20.166Z,1.80
2022-10-11T13:35:53.895Z,1.90
2022-10-11T13:38:30.802Z,1.80
2022-10-11T13:41:08.521Z,1.90
2022-10-11T13:43:41.895Z,2.10
2022-10-11T13:46:21.891Z,1.60
2022-10-11T13:49:37.420Z,2.00
2022-10-11T13:52:24.700Z,1.50
2022-10-11T13:55:26.111Z,2.30
2022-10-11T13:58:00.737Z,1.30
2022-10-11T14:00:38.525Z,2.10
2022-10-11T14:03:21.467Z,1.80
2022-10-11T14:06:01.415Z,2.30
2022-10-11T14:08:40.043Z,2.20
2022-10-11T14:11:14.570Z,1.60
2022-10-11T14:13:50.072Z,1.50
2022-10-11T14:16:34.463Z,2.30
2022-10-11T14:19:19.469Z,1.90
2022-10-11T14:21:56.608Z,1.60
2022-10-11T14:24:29.562Z,1.70
2022-10-11T14:27:05.864Z,1.50
2022-10-11T14:30:00.285Z,1.60
2022-10-11T14:32:39.962Z,1.90
2022-10-11T14:35:18.958Z,2.00
2022-10-11T14:37:52.249Z,2.80
2022-10-11T14:40:28.772Z,2.40
2022-10-11T14:43:01.655Z,1.90
2022-10-11T14:45:35.252Z,1.80
2022-10-11T14:48:08.732Z,1.50
2022-10-11T14:50:47.937Z,2.20
2022-10-11T14:53:20.831Z,2.30
2022-10-11T14:55:54.099Z,2.50
2022-10-11T14:58:27.040Z,3.20
2022-10-11T15:00:59.856Z,2.40
2022-10-11T15:03:32.882Z,2.20
2022-10-11T15:06:06.570Z,2.90
2022-10-11T15:08:40.086Z,2.80
2022-10-11T15:11:14.548Z,2.70
2022-10-11T15:13:47.546Z,3.70
2022-10-11T15:16:23.185Z,4.40
2022-10-11T15:18:56.306Z,4.50
2022-10-11T15:21:31.279Z,7.40
2022-10-11T15:24:04.223Z,15.30
2022-10-11T15:26:37.354Z,12.40
2022-10-11T15:29:13.400Z,11.70
2022-10-11T15:31:47.310Z,8.70
2022-10-11T15:34:20.389Z,10.70
2022-10-11T15:36:53.304Z,8.40
2022-10-11T15:39:32.745Z,6.60
2022-10-11T15:42:05.844Z,8.80
2022-10-11T15:44:38.816Z,8.10
2022-10-11T15:47:12.242Z,8.40
2022-10-11T15:49:45.365Z,8.20
2022-10-11T15:52:18.354Z,5.60
2022-10-11T15:54:51.164Z,5.90
2022-10-11T15:57:24.124Z,4.70
2022-10-11T15:59:57.050Z,4.70
2022-10-11T16:02:30.052Z,4.10
2022-10-11T16:05:03.497Z,4.90
2022-10-11T16:07:36.697Z,4.60
2022-10-11T16:10:11.022Z,4.20
2022-10-11T16:12:44.127Z,4.60
2022-10-11T16:15:17.495Z,4.40
2022-10-11T16:17:50.338Z,4.60
2022-10-11T16:20:25.847Z,5.10
2022-10-11T16:22:58.922Z,4.50
2022-10-11T16:25:31.925Z,4.40
2022-10-11T16:28:05.275Z,3.60
2022-10-11T16:30:41.176Z,3.90
2022-10-11T16:33:14.009Z,4.10
2022-10-11T16:35:46.893Z,4.80
2022-10-11T16:38:19.989Z,3.70
2022-10-11T16:40:52.985Z,4.00
2022-10-11T16:43:25.875Z,4.20
2022-10-11T16:46:02.807Z,3.90
2022-10-11T16:48:35.459Z,3.70
2022-10-11T16:51:12.311Z,4.00
2022-10-11T16:53:45.237Z,4.50
2022-10-11T16:56:20.702Z,5.10
2022-10-11T16:58:54.286Z,4.30
2022-10-11T17:01:27.132Z,4.10
2022-10-11T17:04:00.187Z,5.10
2022-10-11T17:06:33.170Z,6.00
2022-10-11T17:09:06.228Z,4.80
2022-10-11T17:11:39.085Z,4.80
2022-10-11T17:14:12.957Z,5.30
2022-10-11T17:16:46.472Z,5.00
2022-10-11T17:19:20.366Z,5.10
2022-10-11T17:21:53.213Z,5.60
2022-10-11T17:24:26.461Z,5.50
2022-10-11T17:26:59.344Z,6.00
2022-10-11T17:29:32.392Z,11.00
2022-10-11T17:32:06.025Z,7.30
2022-10-11T17:34:39.877Z,5.70
2022-10-11T17:37:12.811Z,6.20
2022-10-11T17:39:45.722Z,5.80
2022-10-11T17:42:18.592Z,5.80
2022-10-11T17:44:51.543Z,5.50
2022-10-11T17:47:24.468Z,6.30
2022-10-11T17:49:57.228Z,7.00
2022-10-11T17:52:30.301Z,8.20
2022-10-11T17:55:03.300Z,8.00
2022-10-11T17:57:36.236Z,8.10
2022-10-11T18:00:11.877Z,6.20
2022-10-11T18:02:44.764Z,8.00
2022-10-11T18:05:17.808Z,8.80
2022-10-11T18:07:53.143Z,6.20
2022-10-11T18:10:27.450Z,5.00
2022-10-11T18:13:05.780Z,7.50
2022-10-11T18:15:39.484Z,7.20
2022-10-11T18:18:12.924Z,8.60
2022-10-11T18:20:50.168Z,9.60
2022-10-11T18:23:23.246Z,10.20
2022-10-11T18:25:56.533Z,9.30
2022-10-11T18:28:29.478Z,10.80
2022-10-11T18:31:02.380Z,11.20
2022-10-11T18:33:36.309Z,10.50
2022-10-11T18:36:13.590Z,10.40
2022-10-11T18:38:49.314Z,10.80
2022-10-11T18:41:24.911Z,11.40
2022-10-11T18:44:00.508Z,9.40
2022-10-11T18:46:34.023Z,7.50
2022-10-11T18:49:07.180Z,6.50
2022-10-11T18:51:42.498Z,7.90
2022-10-11T18:54:20.246Z,9.90
2022-10-11T18:56:54.643Z,11.70
2022-10-11T18:59:27.631Z,11.20
2022-10-11T19:02:00.688Z,11.50
2022-10-11T19:04:34.489Z,11.60
2022-10-11T19:07:07.266Z,12.10
2022-10-11T19:09:40.381Z,12.30
2022-10-11T19:12:13.207Z,11.60
2022-10-11T19:14:46.283Z,10.90
2022-10-11T19:17:22.694Z,10.30
2022-10-11T19:19:55.645Z,12.00
2022-10-11T19:22:28.531Z,12.40
2022-10-11T19:25:01.483Z,12.50
2022-10-11T19:27:34.285Z,8.90
2022-10-11T19:30:08.498Z,8.80
2022-10-11T19:32:41.347Z,8.60
2022-10-11T19:35:19.719Z,9.50
2022-10-11T19:37:52.788Z,9.90
2022-10-11T19:40:27.277Z,9.10
2022-10-11T19:43:02.927Z,7.40
2022-10-11T19:45:37.835Z,8.60
2022-10-11T19:48:11.235Z,9.40
2022-10-11T19:50:44.178Z,10.00
2022-10-11T19:53:16.966Z,10.10
2022-10-11T19:55:50.210Z,10.10
2022-10-11T19:58:23.037Z,12.50
2022-10-11T20:01:04.247Z,9.70
2022-10-11T20:03:37.450Z,9.20
2022-10-11T20:06:12.490Z,10.00
2022-10-11T20:08:48.222Z,11.00
2022-10-11T20:11:26.705Z,11.60
2022-10-11T20:13:59.866Z,11.30
2022-10-11T20:16:33.191Z,11.40
2022-10-11T20:19:06.399Z,11.30
2022-10-11T20:21:39.130Z,11.20
2022-10-11T20:24:12.262Z,10.20
2022-10-11T20:26:45.149Z,11.60
2022-10-11T20:29:18.218Z,15.30
2022-10-11T20:31:51.112Z,15.10
2022-10-11T20:34:23.969Z,17.50
2022-10-11T20:36:56.724Z,19.70
2022-10-11T20:39:29.744Z,18.80
2022-10-11T20:42:02.878Z,13.90
2022-10-11T20:44:35.883Z,12.90
2022-10-11T20:47:09.869Z,16.10
2022-10-11T20:49:42.849Z,17.00
2022-10-11T20:52:15.851Z,16.20
2022-10-11T20:54:48.753Z,20.40
2022-10-11T20:57:21.651Z,17.10
2022-10-11T20:59:54.502Z,13.60
2022-10-11T21:02:27.397Z,10.60
2022-10-11T21:05:00.169Z,11.30
2022-10-11T21:07:33.176Z,10.90
2022-10-11T21:10:06.800Z,11.40
2022-10-11T21:12:39.708Z,13.80
2022-10-11T21:15:13.660Z,14.00
2022-10-11T21:17:46.535Z,13.50
2022-10-11T21:20:19.839Z,14.80
2022-10-11T21:22:52.772Z,16.00
2022-10-11T21:25:25.649Z,16.30
2022-10-11T21:27:58.686Z,15.20
2022-10-11T21:30:31.674Z,14.70
2022-10-11T21:33:04.694Z,14.80
2022-10-11T21:35:41.508Z,19.30
2022-10-11T21:38:14.874Z,16.90
2022-10-11T21:40:47.773Z,17.80
2022-10-11T21:43:20.701Z,17.10
2022-10-11T21:45:53.544Z,23.10
2022-10-11T21:48:26.445Z,25.40
2022-10-11T21:50:59.483Z,21.30
2022-10-11T21:53:32.410Z,21.00
2022-10-11T21:56:05.461Z,20.10
2022-10-11T21:58:38.400Z,20.30
2022-10-11T22:01:12.215Z,16.90
2022-10-11T22:03:45.526Z,15.90
2022-10-11T22:06:21.511Z,16.10
2022-10-11T22:08:55.120Z,16.00
2022-10-11T22:11:28.851Z,19.10
2022-10-11T22:14:02.182Z,18.10
2022-10-11T22:16:36.341Z,17.80
2022-10-11T22:19:09.477Z,19.50
2022-10-11T22:21:45.041Z,17.60
2022-10-11T22:24:19.309Z,20.40
2022-10-11T22:26:52.616Z,19.90
2022-10-11T22:29:27.690Z,18.70
2022-10-11T22:32:03.632Z,17.50
2022-10-11T22:34:37.368Z,22.60
2022-10-11T22:37:10.504Z,21.40
2022-10-11T22:39:43.722Z,21.60
2022-10-11T22:42:17.067Z,16.00
2022-10-11T22:44:50.976Z,16.40
2022-10-11T22:47:24.166Z,19.00
2022-10-11T22:49:57.396Z,18.90
2022-10-11T22:52:30.553Z,18.20
2022-10-11T22:55:03.783Z,21.80
2022-10-11T22:57:37.364Z,20.70
2022-10-11T23:00:13.901Z,17.20
2022-10-11T23:02:47.249Z,18.50
2022-10-11T23:06:02.119Z,18.40
2022-10-11T23:08:35.525Z,17.90
2022-10-11T23:11:10.273Z,17.10
2022-10-11T23:13:43.532Z,19.00
2022-10-11T23:16:17.144Z,22.90
2022-10-11T23:18:52.764Z,23.10
2022-10-11T23:21:26.079Z,21.00
2022-10-11T23:23:59.658Z,18.10
2022-10-11T23:26:32.830Z,20.80
2022-10-11T23:29:06.458Z,23.40
2022-10-11T23:31:39.608Z,22.10
2022-10-11T23:34:12.801Z,17.60
2022-10-11T23:36:46.237Z,20.80
2022-10-11T23:39:19.857Z,17.20
2022-10-11T23:41:53.038Z,16.60
2022-10-11T23:44:26.262Z,16.50
2022-10-11T23:46:59.527Z,15.80
2022-10-11T23:49:32.705Z,16.10
2022-10-11T23:52:05.976Z,14.80
2022-10-11T23:54:40.084Z,15.10
2022-10-11T23:57:13.072Z,16.60
2022-10-11T23:59:45.849Z,20.30
